sensor_id;sensor_type;location;lat;lon;timestamp;P1;durP1;ratioP1;P2;durP2;ratioP2
46745;SDS011;32493;50.514;9.678;2023-01-28T00:00:19;4.18;;;2.95;;
46745;SDS011;32493;50.514;9.678;2023-01-28T00:02:24;5.85;;;3.10;;
46745;SDS011;32493;50.514;9.678;2023-01-28T00:04:29;5.65;;;3.03;;
46745;SDS011;32493;50.514;9.678;2023-01-28T00:06:34;6.47;;;3.15;;
46745;SDS011;32493;50.514;9.678;2023-01-28T00:08:41;5.45;;;3.05;;
46745;SDS011;32493;50.514;9.678;2023-01-28T00:10:46;4.65;;;3.00;;
46745;SDS011;32493;50.514;9.678;2023-01-28T00:12:51;9.20;;;3.95;;
46745;SDS011;32493;50.514;9.678;2023-01-28T00:14:56;7.70;;;3.50;;
46745;SDS011;32493;50.514;9.678;2023-01-28T00:17:03;5.65;;;3.40;;
46745;SDS011;32493;50.514;9.678;2023-01-28T00:19:08;4.88;;;3.30;;
46745;SDS011;32493;50.514;9.678;2023-01-28T00:21:14;5.35;;;3.00;;
46745;SDS011;32493;50.514;9.678;2023-01-28T00:23:19;4.68;;;3.20;;
46745;SDS011;32493;50.514;9.678;2023-01-28T00:25:27;4.30;;;3.22;;
46745;SDS011;32493;50.514;9.678;2023-01-28T00:27:32;4.82;;;3.38;;
46745;SDS011;32493;50.514;9.678;2023-01-28T00:29:37;5.20;;;2.85;;
46745;SDS011;32493;50.514;9.678;2023-01-28T00:31:42;7.93;;;3.92;;
46745;SDS011;32493;50.514;9.678;2023-01-28T00:33:47;6.68;;;3.53;;
46745;SDS011;32493;50.514;9.678;2023-01-28T00:35:58;6.50;;;3.53;;
46745;SDS011;32493;50.514;9.678;2023-01-28T00:38:04;5.03;;;3.45;;
46745;SDS011;32493;50.514;9.678;2023-01-28T00:40:10;9.23;;;3.70;;
46745;SDS011;32493;50.514;9.678;2023-01-28T00:42:19;5.87;;;3.20;;
46745;SDS011;32493;50.514;9.678;2023-01-28T00:44:24;8.52;;;3.10;;
46745;SDS011;32493;50.514;9.678;2023-01-28T00:46:29;4.43;;;2.83;;
46745;SDS011;32493;50.514;9.678;2023-01-28T00:48:35;5.38;;;3.47;;
46745;SDS011;32493;50.514;9.678;2023-01-28T00:50:41;6.43;;;3.70;;
46745;SDS011;32493;50.514;9.678;2023-01-28T00:52:47;7.93;;;3.97;;
46745;SDS011;32493;50.514;9.678;2023-01-28T00:54:52;6.13;;;3.70;;
46745;SDS011;32493;50.514;9.678;2023-01-28T00:56:57;4.70;;;3.58;;
46745;SDS011;32493;50.514;9.678;2023-01-28T00:59:05;7.22;;;3.88;;
46745;SDS011;32493;50.514;9.678;2023-01-28T01:01:10;7.43;;;3.80;;
46745;SDS011;32493;50.514;9.678;2023-01-28T01:03:17;5.22;;;3.28;;
46745;SDS011;32493;50.514;9.678;2023-01-28T01:05:23;6.55;;;3.47;;
46745;SDS011;32493;50.514;9.678;2023-01-28T01:09:42;7.63;;;3.95;;
46745;SDS011;32493;50.514;9.678;2023-01-28T01:11:47;6.22;;;3.30;;
46745;SDS011;32493;50.514;9.678;2023-01-28T01:13:53;6.20;;;3.53;;
46745;SDS011;32493;50.514;9.678;2023-01-28T01:16:04;5.75;;;3.42;;
46745;SDS011;32493;50.514;9.678;2023-01-28T01:18:12;6.38;;;4.03;;
46745;SDS011;32493;50.514;9.678;2023-01-28T01:20:18;7.60;;;3.78;;
46745;SDS011;32493;50.514;9.678;2023-01-28T01:22:25;7.20;;;3.83;;
46745;SDS011;32493;50.514;9.678;2023-01-28T01:24:32;5.97;;;3.45;;
46745;SDS011;32493;50.514;9.678;2023-01-28T01:26:36;7.15;;;3.33;;
46745;SDS011;32493;50.514;9.678;2023-01-28T01:28:42;5.97;;;3.40;;
46745;SDS011;32493;50.514;9.678;2023-01-28T01:30:48;4.68;;;3.35;;
46745;SDS011;32493;50.514;9.678;2023-01-28T01:32:56;6.43;;;3.80;;
46745;SDS011;32493;50.514;9.678;2023-01-28T01:37:08;5.75;;;3.50;;
46745;SDS011;32493;50.514;9.678;2023-01-28T01:39:13;5.85;;;3.63;;
46745;SDS011;32493;50.514;9.678;2023-01-28T01:41:21;5.63;;;3.45;;
46745;SDS011;32493;50.514;9.678;2023-01-28T01:45:55;5.65;;;3.95;;
46745;SDS011;32493;50.514;9.678;2023-01-28T01:48:08;4.45;;;3.20;;
46745;SDS011;32493;50.514;9.678;2023-01-28T01:54:37;4.15;;;3.10;;
46745;SDS011;32493;50.514;9.678;2023-01-28T01:56:45;5.22;;;3.03;;
46745;SDS011;32493;50.514;9.678;2023-01-28T01:58:53;4.32;;;3.20;;
46745;SDS011;32493;50.514;9.678;2023-01-28T02:01:01;3.65;;;3.10;;
46745;SDS011;32493;50.514;9.678;2023-01-28T02:03:10;6.18;;;3.35;;
46745;SDS011;32493;50.514;9.678;2023-01-28T02:05:17;5.28;;;3.63;;
46745;SDS011;32493;50.514;9.678;2023-01-28T02:07:24;5.55;;;3.40;;
46745;SDS011;32493;50.514;9.678;2023-01-28T02:09:31;4.88;;;3.60;;
46745;SDS011;32493;50.514;9.678;2023-01-28T02:11:39;7.80;;;3.85;;
46745;SDS011;32493;50.514;9.678;2023-01-28T02:13:45;8.20;;;4.60;;
46745;SDS011;32493;50.514;9.678;2023-01-28T02:15:57;7.72;;;4.60;;
46745;SDS011;32493;50.514;9.678;2023-01-28T02:18:05;9.00;;;4.65;;
46745;SDS011;32493;50.514;9.678;2023-01-28T02:20:13;11.38;;;4.85;;
46745;SDS011;32493;50.514;9.678;2023-01-28T02:22:44;13.68;;;5.82;;
46745;SDS011;32493;50.514;9.678;2023-01-28T02:28:11;8.52;;;4.80;;
46745;SDS011;32493;50.514;9.678;2023-01-28T02:30:27;5.75;;;4.75;;
46745;SDS011;32493;50.514;9.678;2023-01-28T02:32:38;7.50;;;5.05;;
46745;SDS011;32493;50.514;9.678;2023-01-28T02:34:50;5.68;;;3.92;;
46745;SDS011;32493;50.514;9.678;2023-01-28T02:37:06;8.00;;;5.47;;
46745;SDS011;32493;50.514;9.678;2023-01-28T02:39:19;7.97;;;4.63;;
46745;SDS011;32493;50.514;9.678;2023-01-28T02:41:28;9.57;;;5.40;;
46745;SDS011;32493;50.514;9.678;2023-01-28T02:43:42;8.77;;;4.68;;
46745;SDS011;32493;50.514;9.678;2023-01-28T02:45:51;11.45;;;5.75;;
46745;SDS011;32493;50.514;9.678;2023-01-28T02:48:09;10.85;;;5.85;;
46745;SDS011;32493;50.514;9.678;2023-01-28T02:50:15;11.13;;;5.05;;
46745;SDS011;32493;50.514;9.678;2023-01-28T02:52:35;9.88;;;5.90;;
46745;SDS011;32493;50.514;9.678;2023-01-28T02:55:14;8.95;;;6.05;;
46745;SDS011;32493;50.514;9.678;2023-01-28T02:57:33;8.88;;;5.72;;
46745;SDS011;32493;50.514;9.678;2023-01-28T02:59:53;8.07;;;5.67;;
46745;SDS011;32493;50.514;9.678;2023-01-28T03:02:08;9.02;;;5.55;;
46745;SDS011;32493;50.514;9.678;2023-01-28T03:04:19;8.48;;;6.13;;
46745;SDS011;32493;50.514;9.678;2023-01-28T03:06:30;9.00;;;5.60;;
46745;SDS011;32493;50.514;9.678;2023-01-28T03:08:41;7.28;;;5.82;;
46745;SDS011;32493;50.514;9.678;2023-01-28T03:11:03;10.15;;;5.47;;
46745;SDS011;32493;50.514;9.678;2023-01-28T03:13:21;8.38;;;5.53;;
46745;SDS011;32493;50.514;9.678;2023-01-28T03:15:41;10.02;;;5.20;;
46745;SDS011;32493;50.514;9.678;2023-01-28T03:18:05;11.48;;;4.82;;
46745;SDS011;32493;50.514;9.678;2023-01-28T03:20:27;8.43;;;5.13;;
46745;SDS011;32493;50.514;9.678;2023-01-28T03:22:51;8.55;;;5.00;;
46745;SDS011;32493;50.514;9.678;2023-01-28T03:25:12;7.65;;;4.95;;
46745;SDS011;32493;50.514;9.678;2023-01-28T03:27:38;10.02;;;4.55;;
46745;SDS011;32493;50.514;9.678;2023-01-28T03:30:06;8.88;;;4.88;;
46745;SDS011;32493;50.514;9.678;2023-01-28T03:32:31;8.40;;;5.13;;
46745;SDS011;32493;50.514;9.678;2023-01-28T03:34:51;8.43;;;5.03;;
46745;SDS011;32493;50.514;9.678;2023-01-28T03:37:09;7.13;;;4.38;;
46745;SDS011;32493;50.514;9.678;2023-01-28T03:39:33;10.50;;;5.05;;
46745;SDS011;32493;50.514;9.678;2023-01-28T03:41:39;8.85;;;4.75;;
46745;SDS011;32493;50.514;9.678;2023-01-28T03:43:45;9.10;;;4.75;;
46745;SDS011;32493;50.514;9.678;2023-01-28T03:45:51;12.93;;;4.88;;
46745;SDS011;32493;50.514;9.678;2023-01-28T03:47:57;9.48;;;4.80;;
46745;SDS011;32493;50.514;9.678;2023-01-28T03:50:02;11.98;;;5.50;;
46745;SDS011;32493;50.514;9.678;2023-01-28T03:52:20;8.45;;;5.65;;
46745;SDS011;32493;50.514;9.678;2023-01-28T03:54:36;8.25;;;5.53;;
46745;SDS011;32493;50.514;9.678;2023-01-28T03:56:41;10.55;;;5.00;;
46745;SDS011;32493;50.514;9.678;2023-01-28T03:58:48;8.32;;;5.47;;
46745;SDS011;32493;50.514;9.678;2023-01-28T04:00:57;11.35;;;5.88;;
46745;SDS011;32493;50.514;9.678;2023-01-28T04:03:05;9.00;;;5.00;;
46745;SDS011;32493;50.514;9.678;2023-01-28T04:07:26;8.85;;;4.93;;
46745;SDS011;32493;50.514;9.678;2023-01-28T04:09:47;9.98;;;4.65;;
46745;SDS011;32493;50.514;9.678;2023-01-28T04:12:12;8.20;;;5.20;;
46745;SDS011;32493;50.514;9.678;2023-01-28T04:14:22;11.98;;;5.53;;
46745;SDS011;32493;50.514;9.678;2023-01-28T04:16:36;9.43;;;5.38;;
46745;SDS011;32493;50.514;9.678;2023-01-28T04:18:44;10.90;;;4.50;;
46745;SDS011;32493;50.514;9.678;2023-01-28T04:20:50;10.13;;;5.20;;
46745;SDS011;32493;50.514;9.678;2023-01-28T04:22:55;11.20;;;5.32;;
46745;SDS011;32493;50.514;9.678;2023-01-28T04:25:00;9.40;;;5.78;;
46745;SDS011;32493;50.514;9.678;2023-01-28T04:27:05;9.35;;;5.32;;
46745;SDS011;32493;50.514;9.678;2023-01-28T04:29:10;10.18;;;5.00;;
46745;SDS011;32493;50.514;9.678;2023-01-28T04:31:15;10.10;;;4.95;;
46745;SDS011;32493;50.514;9.678;2023-01-28T04:33:50;10.45;;;4.97;;
46745;SDS011;32493;50.514;9.678;2023-01-28T04:36:00;12.93;;;5.18;;
46745;SDS011;32493;50.514;9.678;2023-01-28T04:38:08;9.35;;;5.20;;
46745;SDS011;32493;50.514;9.678;2023-01-28T04:40:21;10.50;;;4.95;;
46745;SDS011;32493;50.514;9.678;2023-01-28T04:42:32;11.35;;;5.68;;
46745;SDS011;32493;50.514;9.678;2023-01-28T04:44:44;9.40;;;5.00;;
46745;SDS011;32493;50.514;9.678;2023-01-28T04:47:00;10.95;;;5.60;;
46745;SDS011;32493;50.514;9.678;2023-01-28T04:49:24;9.98;;;4.60;;
46745;SDS011;32493;50.514;9.678;2023-01-28T04:51:46;8.48;;;4.63;;
46745;SDS011;32493;50.514;9.678;2023-01-28T04:54:11;7.63;;;4.53;;
46745;SDS011;32493;50.514;9.678;2023-01-28T04:56:17;8.43;;;4.32;;
46745;SDS011;32493;50.514;9.678;2023-01-28T04:58:22;8.75;;;4.53;;
46745;SDS011;32493;50.514;9.678;2023-01-28T05:00:33;10.65;;;4.55;;
46745;SDS011;32493;50.514;9.678;2023-01-28T05:02:38;9.98;;;5.28;;
46745;SDS011;32493;50.514;9.678;2023-01-28T05:04:46;9.07;;;4.70;;
46745;SDS011;32493;50.514;9.678;2023-01-28T05:07:13;7.38;;;4.75;;
46745;SDS011;32493;50.514;9.678;2023-01-28T05:09:18;12.50;;;4.55;;
46745;SDS011;32493;50.514;9.678;2023-01-28T05:11:25;10.60;;;4.85;;
46745;SDS011;32493;50.514;9.678;2023-01-28T05:13:34;9.80;;;4.85;;
46745;SDS011;32493;50.514;9.678;2023-01-28T05:15:41;7.57;;;4.45;;
46745;SDS011;32493;50.514;9.678;2023-01-28T05:17:46;11.45;;;4.63;;
46745;SDS011;32493;50.514;9.678;2023-01-28T05:19:58;11.30;;;4.95;;
46745;SDS011;32493;50.514;9.678;2023-01-28T05:22:04;10.18;;;4.78;;
46745;SDS011;32493;50.514;9.678;2023-01-28T05:24:15;10.15;;;5.50;;
46745;SDS011;32493;50.514;9.678;2023-01-28T05:26:22;10.32;;;4.75;;
46745;SDS011;32493;50.514;9.678;2023-01-28T05:28:27;9.43;;;4.20;;
46745;SDS011;32493;50.514;9.678;2023-01-28T05:30:32;6.65;;;3.70;;
46745;SDS011;32493;50.514;9.678;2023-01-28T05:32:37;6.95;;;3.58;;
46745;SDS011;32493;50.514;9.678;2023-01-28T05:34:43;7.05;;;3.60;;
46745;SDS011;32493;50.514;9.678;2023-01-28T05:36:51;6.20;;;3.22;;
46745;SDS011;32493;50.514;9.678;2023-01-28T05:39:08;6.10;;;3.60;;
46745;SDS011;32493;50.514;9.678;2023-01-28T05:41:14;6.03;;;3.10;;
46745;SDS011;32493;50.514;9.678;2023-01-28T05:43:26;7.75;;;3.55;;
46745;SDS011;32493;50.514;9.678;2023-01-28T05:46:04;5.03;;;3.17;;
46745;SDS011;32493;50.514;9.678;2023-01-28T05:48:33;4.93;;;2.90;;
46745;SDS011;32493;50.514;9.678;2023-01-28T05:50:47;7.57;;;2.97;;
46745;SDS011;32493;50.514;9.678;2023-01-28T05:52:57;5.22;;;2.80;;
46745;SDS011;32493;50.514;9.678;2023-01-28T05:55:07;4.47;;;2.78;;
46745;SDS011;32493;50.514;9.678;2023-01-28T05:57:13;7.38;;;3.00;;
46745;SDS011;32493;50.514;9.678;2023-01-28T05:59:18;4.10;;;2.70;;
46745;SDS011;32493;50.514;9.678;2023-01-28T06:03:32;4.78;;;3.00;;
46745;SDS011;32493;50.514;9.678;2023-01-28T06:05:37;8.73;;;3.45;;
46745;SDS011;32493;50.514;9.678;2023-01-28T06:07:43;5.70;;;2.95;;
46745;SDS011;32493;50.514;9.678;2023-01-28T06:09:52;5.90;;;3.15;;
46745;SDS011;32493;50.514;9.678;2023-01-28T06:11:58;5.55;;;2.45;;
46745;SDS011;32493;50.514;9.678;2023-01-28T06:14:10;5.30;;;2.78;;
46745;SDS011;32493;50.514;9.678;2023-01-28T06:16:39;5.97;;;2.65;;
46745;SDS011;32493;50.514;9.678;2023-01-28T06:18:56;4.43;;;2.85;;
46745;SDS011;32493;50.514;9.678;2023-01-28T06:21:01;5.43;;;2.80;;
46745;SDS011;32493;50.514;9.678;2023-01-28T06:23:07;6.32;;;3.10;;
46745;SDS011;32493;50.514;9.678;2023-01-28T06:25:14;5.72;;;2.97;;
46745;SDS011;32493;50.514;9.678;2023-01-28T06:27:20;6.88;;;3.33;;
46745;SDS011;32493;50.514;9.678;2023-01-28T06:29:26;6.97;;;2.80;;
46745;SDS011;32493;50.514;9.678;2023-01-28T06:31:31;5.57;;;3.30;;
46745;SDS011;32493;50.514;9.678;2023-01-28T06:33:37;3.42;;;2.53;;
46745;SDS011;32493;50.514;9.678;2023-01-28T06:35:42;6.13;;;2.90;;
46745;SDS011;32493;50.514;9.678;2023-01-28T06:37:47;6.60;;;3.00;;
46745;SDS011;32493;50.514;9.678;2023-01-28T06:39:53;6.63;;;2.97;;
46745;SDS011;32493;50.514;9.678;2023-01-28T06:42:00;3.67;;;2.65;;
46745;SDS011;32493;50.514;9.678;2023-01-28T06:44:06;6.05;;;3.10;;
46745;SDS011;32493;50.514;9.678;2023-01-28T06:46:11;6.72;;;2.90;;
46745;SDS011;32493;50.514;9.678;2023-01-28T06:48:17;5.05;;;3.13;;
46745;SDS011;32493;50.514;9.678;2023-01-28T06:50:22;4.80;;;2.47;;
46745;SDS011;32493;50.514;9.678;2023-01-28T06:52:27;7.35;;;2.92;;
46745;SDS011;32493;50.514;9.678;2023-01-28T06:54:32;5.07;;;2.72;;
46745;SDS011;32493;50.514;9.678;2023-01-28T06:56:38;5.00;;;2.85;;
46745;SDS011;32493;50.514;9.678;2023-01-28T06:58:46;6.32;;;3.17;;
46745;SDS011;32493;50.514;9.678;2023-01-28T07:00:51;5.03;;;2.63;;
46745;SDS011;32493;50.514;9.678;2023-01-28T07:02:57;4.85;;;2.40;;
46745;SDS011;32493;50.514;9.678;2023-01-28T07:05:03;4.53;;;2.58;;
46745;SDS011;32493;50.514;9.678;2023-01-28T07:07:09;4.85;;;2.97;;
46745;SDS011;32493;50.514;9.678;2023-01-28T07:09:14;5.32;;;2.60;;
46745;SDS011;32493;50.514;9.678;2023-01-28T07:11:19;5.47;;;2.53;;
46745;SDS011;32493;50.514;9.678;2023-01-28T07:13:24;6.35;;;2.65;;
46745;SDS011;32493;50.514;9.678;2023-01-28T07:15:33;5.30;;;2.65;;
46745;SDS011;32493;50.514;9.678;2023-01-28T07:19:43;4.90;;;2.38;;
46745;SDS011;32493;50.514;9.678;2023-01-28T07:21:48;6.28;;;3.10;;
46745;SDS011;32493;50.514;9.678;2023-01-28T07:23:54;5.78;;;3.08;;
46745;SDS011;32493;50.514;9.678;2023-01-28T07:26:00;5.43;;;3.10;;
46745;SDS011;32493;50.514;9.678;2023-01-28T07:28:05;7.53;;;3.30;;
46745;SDS011;32493;50.514;9.678;2023-01-28T07:30:14;5.22;;;2.88;;
46745;SDS011;32493;50.514;9.678;2023-01-28T07:32:24;5.13;;;2.67;;
46745;SDS011;32493;50.514;9.678;2023-01-28T07:34:30;5.55;;;2.70;;
46745;SDS011;32493;50.514;9.678;2023-01-28T07:36:38;7.15;;;3.47;;
46745;SDS011;32493;50.514;9.678;2023-01-28T07:38:44;8.77;;;4.25;;
46745;SDS011;32493;50.514;9.678;2023-01-28T07:40:49;6.75;;;4.13;;
46745;SDS011;32493;50.514;9.678;2023-01-28T07:42:55;9.00;;;4.38;;
46745;SDS011;32493;50.514;9.678;2023-01-28T07:45:10;12.43;;;4.15;;
46745;SDS011;32493;50.514;9.678;2023-01-28T07:47:15;7.13;;;3.45;;
46745;SDS011;32493;50.514;9.678;2023-01-28T07:49:23;4.53;;;3.13;;
46745;SDS011;32493;50.514;9.678;2023-01-28T07:51:27;4.82;;;3.10;;
46745;SDS011;32493;50.514;9.678;2023-01-28T07:53:33;5.60;;;3.25;;
46745;SDS011;32493;50.514;9.678;2023-01-28T07:55:38;5.05;;;2.67;;
46745;SDS011;32493;50.514;9.678;2023-01-28T07:57:47;5.28;;;3.15;;
46745;SDS011;32493;50.514;9.678;2023-01-28T07:59:54;6.32;;;2.88;;
46745;SDS011;32493;50.514;9.678;2023-01-28T08:01:59;4.38;;;3.15;;
46745;SDS011;32493;50.514;9.678;2023-01-28T08:04:04;7.78;;;3.03;;
46745;SDS011;32493;50.514;9.678;2023-01-28T08:06:12;5.78;;;2.20;;
46745;SDS011;32493;50.514;9.678;2023-01-28T08:08:17;5.72;;;2.72;;
46745;SDS011;32493;50.514;9.678;2023-01-28T08:10:23;4.47;;;2.30;;
46745;SDS011;32493;50.514;9.678;2023-01-28T08:12:29;5.65;;;3.17;;
46745;SDS011;32493;50.514;9.678;2023-01-28T08:14:34;5.88;;;2.10;;
46745;SDS011;32493;50.514;9.678;2023-01-28T08:16:39;5.88;;;3.00;;
46745;SDS011;32493;50.514;9.678;2023-01-28T08:18:45;7.63;;;3.35;;
46745;SDS011;32493;50.514;9.678;2023-01-28T08:20:53;10.82;;;3.38;;
46745;SDS011;32493;50.514;9.678;2023-01-28T08:23:08;6.22;;;3.58;;
46745;SDS011;32493;50.514;9.678;2023-01-28T08:27:22;4.72;;;2.85;;
46745;SDS011;32493;50.514;9.678;2023-01-28T08:29:27;6.43;;;3.55;;
46745;SDS011;32493;50.514;9.678;2023-01-28T08:31:32;5.20;;;3.20;;
46745;SDS011;32493;50.514;9.678;2023-01-28T08:33:37;10.40;;;5.65;;
46745;SDS011;32493;50.514;9.678;2023-01-28T08:35:42;6.72;;;3.67;;
46745;SDS011;32493;50.514;9.678;2023-01-28T08:37:48;9.70;;;4.93;;
46745;SDS011;32493;50.514;9.678;2023-01-28T08:39:59;5.13;;;2.47;;
46745;SDS011;32493;50.514;9.678;2023-01-28T08:42:04;4.55;;;2.80;;
46745;SDS011;32493;50.514;9.678;2023-01-28T08:44:10;4.45;;;3.30;;
46745;SDS011;32493;50.514;9.678;2023-01-28T08:46:15;6.38;;;2.78;;
46745;SDS011;32493;50.514;9.678;2023-01-28T08:48:22;6.63;;;3.70;;
46745;SDS011;32493;50.514;9.678;2023-01-28T08:50:28;5.45;;;3.47;;
46745;SDS011;32493;50.514;9.678;2023-01-28T08:52:36;6.28;;;2.90;;
46745;SDS011;32493;50.514;9.678;2023-01-28T08:54:42;7.65;;;4.13;;
46745;SDS011;32493;50.514;9.678;2023-01-28T08:56:49;5.55;;;3.35;;
46745;SDS011;32493;50.514;9.678;2023-01-28T08:58:54;10.73;;;3.53;;
46745;SDS011;32493;50.514;9.678;2023-01-28T09:01:02;7.15;;;3.33;;
46745;SDS011;32493;50.514;9.678;2023-01-28T09:03:08;6.28;;;3.08;;
46745;SDS011;32493;50.514;9.678;2023-01-28T09:05:12;6.35;;;3.08;;
46745;SDS011;32493;50.514;9.678;2023-01-28T09:07:18;4.80;;;2.85;;
46745;SDS011;32493;50.514;9.678;2023-01-28T09:09:23;9.63;;;4.05;;
46745;SDS011;32493;50.514;9.678;2023-01-28T09:11:28;5.47;;;3.45;;
46745;SDS011;32493;50.514;9.678;2023-01-28T09:13:35;7.68;;;3.78;;
46745;SDS011;32493;50.514;9.678;2023-01-28T09:15:41;7.75;;;3.45;;
46745;SDS011;32493;50.514;9.678;2023-01-28T09:17:46;5.40;;;3.00;;
46745;SDS011;32493;50.514;9.678;2023-01-28T09:19:51;8.05;;;2.80;;
46745;SDS011;32493;50.514;9.678;2023-01-28T09:21:56;5.60;;;2.70;;
46745;SDS011;32493;50.514;9.678;2023-01-28T09:24:01;4.45;;;3.40;;
46745;SDS011;32493;50.514;9.678;2023-01-28T09:26:06;6.97;;;3.90;;
46745;SDS011;32493;50.514;9.678;2023-01-28T09:28:12;5.75;;;3.20;;
46745;SDS011;32493;50.514;9.678;2023-01-28T09:30:20;3.40;;;2.38;;
46745;SDS011;32493;50.514;9.678;2023-01-28T09:32:25;4.20;;;1.83;;
46745;SDS011;32493;50.514;9.678;2023-01-28T09:34:31;4.50;;;2.50;;
46745;SDS011;32493;50.514;9.678;2023-01-28T09:36:36;5.10;;;2.50;;
46745;SDS011;32493;50.514;9.678;2023-01-28T09:38:41;6.30;;;2.80;;
46745;SDS011;32493;50.514;9.678;2023-01-28T09:40:46;3.75;;;1.90;;
46745;SDS011;32493;50.514;9.678;2023-01-28T09:42:57;2.38;;;1.77;;
46745;SDS011;32493;50.514;9.678;2023-01-28T09:45:21;17.15;;;5.88;;
46745;SDS011;32493;50.514;9.678;2023-01-28T09:47:34;11.82;;;5.28;;
46745;SDS011;32493;50.514;9.678;2023-01-28T09:49:44;9.95;;;3.58;;
46745;SDS011;32493;50.514;9.678;2023-01-28T09:51:54;33.60;;;10.23;;
46745;SDS011;32493;50.514;9.678;2023-01-28T09:54:01;22.60;;;6.60;;
46745;SDS011;32493;50.514;9.678;2023-01-28T09:56:23;8.73;;;3.67;;
46745;SDS011;32493;50.514;9.678;2023-01-28T09:58:33;2.55;;;1.73;;
46745;SDS011;32493;50.514;9.678;2023-01-28T10:00:41;2.65;;;1.50;;
46745;SDS011;32493;50.514;9.678;2023-01-28T10:02:59;11.50;;;4.13;;
46745;SDS011;32493;50.514;9.678;2023-01-28T10:05:24;2.95;;;1.83;;
46745;SDS011;32493;50.514;9.678;2023-01-28T10:07:40;9.02;;;3.55;;
46745;SDS011;32493;50.514;9.678;2023-01-28T10:09:57;4.60;;;2.13;;
46745;SDS011;32493;50.514;9.678;2023-01-28T10:12:12;7.60;;;3.20;;
46745;SDS011;32493;50.514;9.678;2023-01-28T10:14:36;6.90;;;3.58;;
46745;SDS011;32493;50.514;9.678;2023-01-28T10:16:58;9.52;;;4.15;;
46745;SDS011;32493;50.514;9.678;2023-01-28T10:19:09;13.55;;;5.32;;
46745;SDS011;32493;50.514;9.678;2023-01-28T10:21:20;7.32;;;3.35;;
46745;SDS011;32493;50.514;9.678;2023-01-28T10:23:33;4.07;;;2.35;;
46745;SDS011;32493;50.514;9.678;2023-01-28T10:25:47;6.15;;;2.85;;
46745;SDS011;32493;50.514;9.678;2023-01-28T10:27:52;6.50;;;3.03;;
46745;SDS011;32493;50.514;9.678;2023-01-28T10:29:58;4.50;;;2.08;;
46745;SDS011;32493;50.514;9.678;2023-01-28T10:32:20;7.53;;;3.63;;
46745;SDS011;32493;50.514;9.678;2023-01-28T10:34:34;5.00;;;3.47;;
46745;SDS011;32493;50.514;9.678;2023-01-28T10:36:40;10.23;;;4.88;;
46745;SDS011;32493;50.514;9.678;2023-01-28T10:38:45;3.80;;;2.53;;
46745;SDS011;32493;50.514;9.678;2023-01-28T10:40:50;4.30;;;2.17;;
46745;SDS011;32493;50.514;9.678;2023-01-28T10:42:58;6.80;;;3.20;;
46745;SDS011;32493;50.514;9.678;2023-01-28T10:45:04;7.20;;;3.40;;
46745;SDS011;32493;50.514;9.678;2023-01-28T10:47:26;3.70;;;1.95;;
46745;SDS011;32493;50.514;9.678;2023-01-28T10:49:37;3.30;;;2.00;;
46745;SDS011;32493;50.514;9.678;2023-01-28T10:51:49;13.80;;;4.85;;
46745;SDS011;32493;50.514;9.678;2023-01-28T10:53:53;10.15;;;3.85;;
46745;SDS011;32493;50.514;9.678;2023-01-28T10:55:59;11.10;;;4.50;;
46745;SDS011;32493;50.514;9.678;2023-01-28T10:58:05;10.15;;;4.10;;
46745;SDS011;32493;50.514;9.678;2023-01-28T11:00:24;7.47;;;3.95;;
46745;SDS011;32493;50.514;9.678;2023-01-28T11:02:43;24.67;;;9.45;;
46745;SDS011;32493;50.514;9.678;2023-01-28T11:04:59;8.13;;;3.95;;
46745;SDS011;32493;50.514;9.678;2023-01-28T11:07:15;3.22;;;2.00;;
46745;SDS011;32493;50.514;9.678;2023-01-28T11:09:24;3.25;;;2.10;;
46745;SDS011;32493;50.514;9.678;2023-01-28T11:11:31;5.15;;;2.17;;
46745;SDS011;32493;50.514;9.678;2023-01-28T11:13:47;12.43;;;4.88;;
46745;SDS011;32493;50.514;9.678;2023-01-28T11:15:56;8.25;;;3.83;;
46745;SDS011;32493;50.514;9.678;2023-01-28T11:18:14;3.45;;;1.73;;
46745;SDS011;32493;50.514;9.678;2023-01-28T11:20:25;15.75;;;6.55;;
46745;SDS011;32493;50.514;9.678;2023-01-28T11:22:32;18.95;;;7.00;;
46745;SDS011;32493;50.514;9.678;2023-01-28T11:24:42;11.68;;;4.65;;
46745;SDS011;32493;50.514;9.678;2023-01-28T11:26:48;12.40;;;5.60;;
46745;SDS011;32493;50.514;9.678;2023-01-28T11:28:57;6.00;;;3.40;;
46745;SDS011;32493;50.514;9.678;2023-01-28T11:31:02;4.07;;;2.22;;
46745;SDS011;32493;50.514;9.678;2023-01-28T11:33:15;3.80;;;2.10;;
46745;SDS011;32493;50.514;9.678;2023-01-28T11:35:24;4.38;;;2.15;;
46745;SDS011;32493;50.514;9.678;2023-01-28T11:37:31;3.40;;;2.05;;
46745;SDS011;32493;50.514;9.678;2023-01-28T11:39:39;3.92;;;2.40;;
46745;SDS011;32493;50.514;9.678;2023-01-28T11:41:45;4.10;;;2.38;;
46745;SDS011;32493;50.514;9.678;2023-01-28T11:43:50;4.90;;;1.95;;
46745;SDS011;32493;50.514;9.678;2023-01-28T11:45:59;4.75;;;2.30;;
46745;SDS011;32493;50.514;9.678;2023-01-28T11:48:25;5.75;;;2.00;;
46745;SDS011;32493;50.514;9.678;2023-01-28T11:50:38;2.60;;;1.98;;
46745;SDS011;32493;50.514;9.678;2023-01-28T11:52:54;5.35;;;3.00;;
46745;SDS011;32493;50.514;9.678;2023-01-28T11:55:21;9.20;;;4.30;;
46745;SDS011;32493;50.514;9.678;2023-01-28T11:57:44;9.90;;;4.30;;
46745;SDS011;32493;50.514;9.678;2023-01-28T12:00:03;11.52;;;5.40;;
46745;SDS011;32493;50.514;9.678;2023-01-28T12:02:36;9.27;;;4.35;;
46745;SDS011;32493;50.514;9.678;2023-01-28T12:04:59;12.10;;;5.47;;
46745;SDS011;32493;50.514;9.678;2023-01-28T12:07:25;8.32;;;4.47;;
46745;SDS011;32493;50.514;9.678;2023-01-28T12:09:42;11.98;;;6.20;;
46745;SDS011;32493;50.514;9.678;2023-01-28T12:12:01;5.82;;;3.30;;
46745;SDS011;32493;50.514;9.678;2023-01-28T12:14:25;2.92;;;2.10;;
46745;SDS011;32493;50.514;9.678;2023-01-28T12:16:46;4.00;;;2.40;;
46745;SDS011;32493;50.514;9.678;2023-01-28T12:21:59;6.95;;;3.95;;
46745;SDS011;32493;50.514;9.678;2023-01-28T12:24:31;4.85;;;3.35;;
46745;SDS011;32493;50.514;9.678;2023-01-28T12:26:48;8.55;;;4.68;;
46745;SDS011;32493;50.514;9.678;2023-01-28T12:29:04;4.80;;;2.90;;
46745;SDS011;32493;50.514;9.678;2023-01-28T12:31:34;6.43;;;3.92;;
46745;SDS011;32493;50.514;9.678;2023-01-28T12:34:05;5.32;;;3.50;;
46745;SDS011;32493;50.514;9.678;2023-01-28T12:36:43;7.07;;;3.53;;
46745;SDS011;32493;50.514;9.678;2023-01-28T12:39:06;10.02;;;5.00;;
46745;SDS011;32493;50.514;9.678;2023-01-28T12:41:27;7.13;;;4.13;;
46745;SDS011;32493;50.514;9.678;2023-01-28T12:43:41;4.85;;;3.42;;
46745;SDS011;32493;50.514;9.678;2023-01-28T12:45:54;12.73;;;6.05;;
46745;SDS011;32493;50.514;9.678;2023-01-28T12:48:05;6.60;;;3.95;;
46745;SDS011;32493;50.514;9.678;2023-01-28T12:50:16;6.72;;;4.05;;
46745;SDS011;32493;50.514;9.678;2023-01-28T12:52:27;8.32;;;3.63;;
46745;SDS011;32493;50.514;9.678;2023-01-28T12:54:41;11.13;;;5.13;;
46745;SDS011;32493;50.514;9.678;2023-01-28T12:56:56;11.18;;;6.03;;
46745;SDS011;32493;50.514;9.678;2023-01-28T12:59:03;6.35;;;3.10;;
46745;SDS011;32493;50.514;9.678;2023-01-28T13:01:15;6.60;;;3.33;;
46745;SDS011;32493;50.514;9.678;2023-01-28T13:03:29;4.53;;;2.63;;
46745;SDS011;32493;50.514;9.678;2023-01-28T13:05:43;5.07;;;3.25;;
46745;SDS011;32493;50.514;9.678;2023-01-28T13:07:54;7.55;;;2.85;;
46745;SDS011;32493;50.514;9.678;2023-01-28T13:10:12;5.20;;;2.90;;
46745;SDS011;32493;50.514;9.678;2023-01-28T13:12:26;3.67;;;2.50;;
46745;SDS011;32493;50.514;9.678;2023-01-28T13:14:32;3.05;;;2.28;;
46745;SDS011;32493;50.514;9.678;2023-01-28T13:16:38;4.63;;;2.78;;
46745;SDS011;32493;50.514;9.678;2023-01-28T13:18:44;4.55;;;2.85;;
46745;SDS011;32493;50.514;9.678;2023-01-28T13:20:50;4.05;;;2.33;;
46745;SDS011;32493;50.514;9.678;2023-01-28T13:22:59;4.88;;;2.30;;
46745;SDS011;32493;50.514;9.678;2023-01-28T13:25:23;3.30;;;2.10;;
46745;SDS011;32493;50.514;9.678;2023-01-28T13:27:31;5.15;;;2.78;;
46745;SDS011;32493;50.514;9.678;2023-01-28T13:29:36;5.70;;;3.13;;